Baker, California
Current Conditions -  °F | °C
As of 6:55 AM on Wednesday 22 Oct 2014 (Local Time) from KBYS Reporting Station
Clear Clear  
Wind Chill: 58°   Ceiling: Unl
Heat Index: 58°   Visibility: 10mi
Dew Point: 33°   Wind: 8mph
Humidity: 40%   Direction: 30°NNE
Pressure: 29.98"   Gusts: NA
Location:  35.26°N, 116.07°W
Report Text: KBYS 221355Z AUTO 03007KT 10SM CLR 14/01 A2998 RMK AO2 SLP132 T01420008 $
Loading
Personal Weather Stations






























Interactive Weather Map
Tropical Storm Tracking
New forecast layout! Learn more

10-Day Weather Forecast

Advertisements
Track Severe Weather on mobile